.
WxDataArchive / Data Records for 2007-05-07
2007-05-06 May 2007 2007-05-08

Data Records for Monday, 07 May 2007

Time	Temp	Chill	HIndex	Humid	Dewpt	 Wind 	HiWind	WindDir	Rain 	Barom 
-----	----	-----	------	-----	-----	------	------	-------	-----	----- 
00:00	46.4	46.4	46.4	59	32.9	3	5	112	0.00	30.307 
00:05	46.2	46.2	46.2	59	32.7	2	4	90	0.00	30.305 
00:10	46.2	46.2	46.2	60	33.1	2	5	90	0.00	30.305 
00:15	46.2	46.2	46.2	60	33.1	1	4	90	0.00	30.304 
00:20	46.1	46.1	46.1	61	33.4	2	4	90	0.00	30.304 
00:25	46.0	46.0	46.0	62	33.7	2	3	90	0.00	30.301 
00:30	45.8	45.8	45.8	62	33.5	1	4	90	0.00	30.301 
00:35	45.8	45.8	45.8	62	33.5	2	5	90	0.00	30.299 
00:40	45.7	45.7	45.7	62	33.4	2	5	90	0.00	30.296 
00:45	45.8	45.8	45.8	62	33.5	3	6	112	0.00	30.294 
00:50	45.8	45.8	45.8	62	33.5	3	7	90	0.00	30.290 
00:55	46.0	46.0	46.0	63	34.1	3	6	90	0.00	30.288 
01:00	45.8	45.8	45.8	63	33.9	2	6	90	0.00	30.288 
01:05	45.7	45.7	45.7	64	34.2	2	6	112	0.00	30.280 
01:10	45.7	45.7	45.7	64	34.2	3	7	112	0.00	30.279 
01:15	45.5	45.5	45.5	64	34.0	2	5	112	0.00	30.278 
01:20	45.4	45.4	45.4	64	33.9	3	5	112	0.00	30.280 
01:25	45.2	45.2	45.2	65	34.1	2	5	90	0.00	30.276 
01:30	45.2	45.2	45.2	65	34.1	3	6	90	0.00	30.270 
01:35	45.1	45.1	45.1	66	34.4	2	5	112	0.00	30.270 
01:40	44.9	44.9	44.9	66	34.2	1	4	90	0.00	30.269 
01:45	44.8	44.8	44.8	66	34.1	2	4	90	0.00	30.265 
01:50	44.8	44.8	44.8	66	34.1	3	5	112	0.00	30.265 
01:55	44.8	44.8	44.8	67	34.5	2	7	90	0.00	30.263 
02:00	44.6	44.6	44.6	67	34.3	2	4	90	0.00	30.262 
02:05	44.5	44.5	44.5	68	34.6	2	5	90	0.00	30.262 
02:10	44.3	44.3	44.3	68	34.4	2	4	112	0.00	30.270 
02:15	44.2	44.2	44.2	68	34.3	1	4	112	0.00	30.273 
02:20	44.1	44.1	44.1	69	34.6	2	4	90	0.00	30.266 
02:25	43.9	43.9	43.9	69	34.4	2	4	90	0.00	30.261 
02:30	43.8	43.8	43.8	69	34.3	2	4	90	0.00	30.261 
02:35	43.8	43.8	43.8	70	34.7	1	4	90	0.00	30.262 
02:40	43.6	43.6	43.6	70	34.5	1	4	90	0.00	30.263 
02:45	43.5	43.5	43.5	71	34.7	1	3	90	0.00	30.260 
02:50	43.2	43.2	43.2	71	34.4	1	3	90	0.00	30.257 
02:55	43.1	43.1	43.1	71	34.3	2	4	90	0.00	30.257 
03:00	42.9	42.9	42.9	72	34.5	1	3	112	0.00	30.259 
03:05	42.6	42.6	42.6	73	34.6	1	2	112	0.00	30.258 
03:10	42.5	42.5	42.5	73	34.5	0	2	112	0.00	30.257 
03:15	42.3	42.3	42.3	71	33.6	1	4	68	0.00	30.258 
03:20	42.2	42.2	42.2	74	34.5	1	3	90	0.00	30.253 
03:25	42.2	42.2	42.2	74	34.5	2	5	68	0.00	30.249 
03:30	42.2	42.2	42.2	74	34.5	1	3	90	0.00	30.248 
03:35	42.3	42.3	42.3	74	34.6	2	4	112	0.00	30.247 
03:40	42.3	42.3	42.3	74	34.6	1	4	90	0.00	30.246 
03:45	42.2	42.2	42.2	74	34.5	0	1	90	0.00	30.250 
03:50	41.8	41.8	41.8	75	34.5	0	0	---	0.00	30.259 
03:55	41.3	41.3	41.3	75	34.0	0	0	---	0.00	30.254 
04:00	40.8	40.8	40.8	76	33.8	0	0	---	0.00	30.248 
04:05	40.3	40.3	40.3	77	33.7	0	0	---	0.00	30.255 
04:10	39.9	39.9	39.9	79	33.9	0	1	90	0.00	30.251 
04:15	39.8	39.8	39.8	81	34.5	0	1	90	0.00	30.250 
04:20	39.6	39.6	39.6	81	34.3	0	0	---	0.00	30.251 
04:25	39.5	39.5	39.5	81	34.2	0	0	---	0.00	30.255 
04:30	39.2	39.2	39.2	81	33.9	0	0	---	0.00	30.256 
04:35	39.1	39.1	39.1	81	33.8	0	0	---	0.00	30.254 
04:40	38.9	38.9	38.9	82	33.9	0	0	---	0.00	30.255 
04:45	38.6	38.6	38.6	82	33.6	0	0	---	0.00	30.266 
04:50	38.5	38.5	38.5	82	33.5	0	0	---	0.00	30.270 
04:55	38.5	38.5	38.5	83	33.8	0	1	90	0.00	30.275 
05:00	38.3	38.3	38.3	83	33.6	0	0	---	0.00	30.276 
05:05	38.2	38.2	38.2	83	33.5	0	1	90	0.00	30.277 
05:10	37.9	37.9	37.9	84	33.5	0	1	90	0.00	30.281 
05:15	37.6	37.6	37.6	84	33.2	0	0	---	0.00	30.279 
05:20	37.3	37.3	37.3	84	32.9	0	0	---	0.00	30.274 
05:25	37.2	37.2	37.2	85	33.1	0	0	---	0.00	30.280 
05:30	37.0	37.0	37.0	85	32.9	0	0	---	0.00	30.275 
05:35	36.9	36.9	36.9	86	33.1	0	1	90	0.00	30.271 
05:40	36.9	36.9	36.9	87	33.4	0	1	90	0.00	30.268 
05:45	37.0	37.0	37.0	87	33.5	0	0	---	0.00	30.270 
05:50	37.2	37.2	37.2	87	33.7	0	1	90	0.00	30.277 
05:55	37.3	37.3	37.3	87	33.8	0	1	90	0.00	30.277 
06:00	38.0	38.0	38.0	85	33.9	0	1	90	0.00	30.279 
06:05	38.6	38.6	38.6	84	34.2	0	1	90	0.00	30.284 
06:10	39.2	39.2	39.2	82	34.2	0	2	90	0.00	30.284 
06:15	40.3	40.3	40.3	79	34.3	1	3	90	0.00	30.282 
06:20	41.3	41.3	41.3	76	34.3	1	2	90	0.00	30.282 
06:25	42.3	42.3	42.3	73	34.3	1	3	90	0.00	30.285 
06:30	43.1	43.1	43.1	72	34.7	2	3	90	0.00	30.283 
06:35	43.6	43.6	43.6	71	34.8	1	3	90	0.00	30.281 
06:40	44.2	44.2	44.2	70	35.0	2	4	112	0.00	30.279 
06:45	44.6	44.6	44.6	70	35.4	2	4	112	0.00	30.280 
06:50	45.4	45.4	45.4	68	35.5	1	3	90	0.00	30.283 
06:55	46.2	46.2	46.2	65	35.1	1	3	112	0.00	30.287 
07:00	47.0	47.0	47.0	64	35.5	1	3	112	0.00	30.290 
07:05	47.4	47.4	47.4	64	35.8	2	4	68	0.00	30.292 
07:10	48.0	48.0	48.0	62	35.6	1	3	68	0.00	30.295 
07:15	48.5	48.5	48.5	62	36.1	2	3	68	0.00	30.293 
07:20	49.2	49.2	49.2	60	35.9	1	4	90	0.00	30.292 
07:25	49.9	49.9	49.9	59	36.1	2	3	112	0.00	30.294 
07:30	50.7	50.7	50.7	56	35.6	2	6	112	0.00	30.292 
07:35	51.1	51.1	51.1	55	35.5	2	4	135	0.00	30.293 
07:40	51.7	51.7	51.7	54	35.6	2	5	112	0.00	30.294 
07:45	52.2	52.2	52.2	52	35.1	2	5	112	0.00	30.293 
07:50	52.9	52.9	52.9	51	35.3	1	4	112	0.00	30.294 
07:55	53.6	53.6	53.6	50	35.4	2	4	112	0.00	30.295 
08:00	54.2	54.2	54.2	47	34.4	2	5	112	0.00	30.292 
08:05	55.0	55.0	55.0	46	34.6	2	6	112	0.00	30.291 
08:10	55.4	55.4	55.4	45	34.4	3	6	90	0.00	30.291 
08:15	56.0	56.0	56.0	43	33.8	2	6	135	0.00	30.291 
08:20	56.5	56.5	56.5	42	33.7	2	7	112	0.00	30.290 
08:25	57.0	57.0	57.0	39	32.3	3	6	135	0.00	30.291 
08:30	57.5	57.5	57.5	40	33.4	3	7	112	0.00	30.293 
08:35	58.1	58.1	58.1	39	33.3	3	7	112	0.00	30.291 
08:40	58.9	58.9	58.9	37	32.7	2	4	112	0.00	30.289 
08:45	59.8	59.8	59.8	41	36.1	1	4	112	0.00	30.286 
08:50	60.7	60.7	60.7	35	32.9	3	7	112	0.00	30.281 
08:55	61.2	61.2	61.2	33	31.9	3	8	90	0.00	30.280 
09:00	61.5	61.5	61.5	30	29.8	3	9	112	0.00	30.283 
09:05	61.8	61.8	61.8	31	30.8	3	8	90	0.00	30.282 
09:10	62.3	62.3	62.3	30	30.5	3	7	112	0.00	30.276 
09:15	62.7	62.7	62.7	28	29.1	3	7	112	0.00	30.271 
09:20	63.1	63.1	63.1	27	28.6	3	12	90	0.00	30.268 
09:25	63.4	63.4	63.4	28	29.7	4	7	90	0.00	30.265 
09:30	63.7	63.7	63.7	28	30.0	3	7	112	0.00	30.269 
09:35	64.3	64.3	64.3	27	29.6	3	6	112	0.00	30.268 
09:40	65.0	65.0	65.0	29	32.0	2	4	112	0.00	30.257 
09:45	65.5	65.5	65.5	28	31.5	2	5	112	0.00	30.255 
09:50	65.5	65.5	65.5	27	30.6	3	11	90	0.00	30.254 
09:55	65.8	65.8	65.8	27	30.9	2	6	90	0.00	30.255 
10:00	66.3	66.3	66.3	28	32.2	3	8	90	0.00	30.254 
10:05	66.6	66.6	66.6	25	29.7	3	12	68	0.00	30.254 
10:10	66.6	66.6	66.6	25	29.7	3	6	112	0.00	30.256 
10:15	66.9	66.9	66.9	26	30.9	2	9	112	0.00	30.253 
10:20	67.4	67.4	67.4	26	31.3	3	10	90	0.00	30.254 
10:25	67.4	67.4	67.4	25	30.4	4	9	112	0.00	30.253 
10:30	67.8	67.8	67.8	28	33.5	3	6	112	0.00	30.251 
10:35	68.1	68.1	68.1	23	28.9	4	9	90	0.00	30.248 
10:40	68.1	68.1	68.1	25	30.9	3	9	112	0.00	30.244 
10:45	67.9	67.9	67.9	27	32.7	3	9	90	0.00	30.243 
10:50	68.1	68.1	68.1	27	32.9	3	10	112	0.00	30.239 
10:55	68.4	68.4	68.4	24	30.2	3	9	90	0.00	30.238 
11:00	68.6	68.6	68.6	24	30.4	4	9	90	0.00	30.236 
11:05	68.6	68.6	68.6	23	29.3	4	7	90	0.00	30.238 
11:10	69.3	69.3	69.3	24	31.0	2	4	90	0.00	30.236 
11:15	69.6	69.6	69.6	24	31.2	3	7	112	0.00	30.234 
11:20	69.8	69.8	69.8	23	30.3	3	6	112	0.00	30.231 
11:25	70.1	70.1	70.1	25	32.6	3	6	112	0.00	30.229 
11:30	70.6	70.6	70.6	24	32.0	2	5	112	0.00	30.226 
11:35	70.9	70.9	70.9	26	34.3	3	7	112	0.00	30.225 
11:40	70.8	70.8	70.8	27	35.2	3	9	112	0.00	30.220 
11:45	71.1	71.1	71.1	25	33.5	3	12	90	0.00	30.219 
11:50	71.3	71.3	71.3	25	33.7	3	12	112	0.00	30.217 
11:55	71.5	71.5	71.5	23	31.7	3	11	90	0.00	30.210 
12:00	71.3	71.3	71.3	23	31.6	3	7	90	0.00	30.208 
12:05	71.5	71.5	71.5	23	31.7	3	6	112	0.00	30.203 
12:10	72.0	72.0	72.0	24	33.2	3	7	90	0.00	30.201 
12:15	72.1	72.1	72.1	27	36.3	3	6	90	0.00	30.202 
12:20	72.3	72.3	72.3	24	33.5	3	7	112	0.00	30.203 
12:25	72.3	72.3	72.3	25	34.5	4	7	112	0.00	30.199 
12:30	72.5	72.5	72.5	23	32.6	3	6	112	0.00	30.195 
12:35	72.7	72.7	72.7	26	35.8	3	6	112	0.00	30.190 
12:40	72.7	72.7	72.7	25	34.8	3	9	90	0.00	30.188 
12:45	72.7	72.7	72.7	26	35.8	4	9	90	0.00	30.186 
12:50	72.8	72.8	72.8	26	35.9	3	7	90	0.00	30.185 
12:55	72.8	72.8	72.8	25	34.9	4	11	90	0.00	30.180 
13:00	73.0	73.0	73.0	26	36.1	4	9	90	0.00	30.177 
13:05	73.3	73.3	73.3	28	38.2	2	6	90	0.00	30.173 
13:10	73.9	73.9	73.9	27	37.8	3	6	112	0.00	30.173 
13:15	74.0	74.0	74.0	26	36.9	2	5	112	0.00	30.172 
13:20	74.2	74.2	74.2	27	38.1	2	5	45	0.00	30.172 
13:25	74.6	74.6	74.6	25	36.4	3	6	90	0.00	30.171 
13:30	74.7	74.7	74.7	23	34.4	3	7	112	0.00	30.170 
13:35	74.6	74.6	74.6	26	37.4	2	5	22	0.00	30.169 
13:40	74.6	74.6	74.6	28	39.3	3	9	112	0.00	30.169 
13:45	74.6	74.6	74.6	25	36.4	2	5	90	0.00	30.169 
13:50	74.7	74.7	74.7	26	37.5	3	6	90	0.00	30.166 
13:55	75.1	75.1	76.5	24	35.8	3	7	90	0.00	30.162 
14:00	74.9	74.9	74.9	27	38.7	3	5	90	0.00	30.157 
14:05	75.1	75.1	76.4	23	34.8	2	6	90	0.00	30.159 
14:10	75.6	75.6	76.8	26	38.3	2	6	112	0.00	30.160 
14:15	75.8	75.8	76.8	25	37.5	3	7	90	0.00	30.159 
14:20	75.8	75.8	77.0	27	39.4	2	6	112	0.00	30.156 
14:25	76.0	76.0	76.9	25	37.6	2	6	90	0.00	30.155 
14:30	75.6	75.6	76.5	22	34.1	4	10	90	0.00	30.155 
14:35	75.3	75.3	76.5	24	36.0	3	7	90	0.00	30.154 
14:40	75.4	75.4	76.7	25	37.1	3	7	90	0.00	30.155 
14:45	76.0	76.0	76.6	22	34.4	3	9	90	0.00	30.153 
14:50	76.5	76.5	77.0	24	37.0	2	5	90	0.00	30.148 
14:55	76.5	76.5	77.1	25	38.0	2	15	90	0.00	30.145 
15:00	76.7	76.7	76.9	22	35.0	3	15	68	0.00	30.148 
15:05	76.7	76.7	77.1	24	37.2	2	5	90	0.00	30.148 
15:10	76.7	76.7	77.1	24	37.2	2	5	90	0.00	30.143 
15:15	76.5	76.5	77.1	25	38.0	3	7	90	0.00	30.142 
15:20	76.3	76.3	76.8	22	34.6	4	11	90	0.00	30.142 
15:25	76.0	76.0	76.7	23	35.5	4	9	90	0.00	30.141 
15:30	76.1	76.1	76.8	24	36.7	2	6	45	0.00	30.138 
15:35	76.3	76.3	76.8	22	34.6	3	11	90	0.00	30.138 
15:40	76.3	76.3	76.8	22	34.6	3	7	90	0.00	30.133 
15:45	76.3	76.3	76.8	22	34.6	2	9	112	0.00	30.132 
15:50	76.7	76.7	76.9	21	33.8	2	6	112	0.00	30.124 
15:55	76.7	76.7	76.9	22	35.0	3	7	90	0.00	30.124 
16:00	76.8	76.8	77.1	23	36.2	2	7	112	0.00	30.124 
16:05	76.7	76.7	76.9	21	33.8	3	10	90	0.00	30.127 
16:10	76.7	76.7	76.9	22	35.0	3	10	90	0.00	30.124 
16:15	76.7	76.7	76.9	22	35.0	3	12	90	0.00	30.120 
16:20	76.7	76.7	76.9	21	33.8	3	11	90	0.00	30.119 
16:25	76.8	76.8	76.9	21	33.9	2	6	90	0.00	30.117 
16:30	76.8	76.8	76.9	21	33.9	3	10	90	0.00	30.122 
16:35	76.7	76.7	76.9	22	35.0	2	5	90	0.00	30.123 
16:40	76.7	76.7	76.9	22	35.0	2	6	68	0.00	30.124 
16:45	76.7	76.7	76.8	20	32.6	4	11	90	0.00	30.121 
16:50	76.5	76.5	76.8	21	33.6	3	6	90	0.00	30.119 
16:55	76.7	76.7	76.9	21	33.8	1	3	90	0.00	30.121 
17:00	76.7	76.7	76.9	22	35.0	2	7	90	0.00	30.121 
17:05	76.7	76.7	76.9	21	33.8	2	6	90	0.00	30.120 
17:10	76.7	76.7	76.8	20	32.6	3	7	90	0.00	30.114 
17:15	76.5	76.5	76.8	21	33.6	3	6	90	0.00	30.114 
17:20	76.3	76.3	76.8	22	34.6	2	5	90	0.00	30.112 
17:25	76.5	76.5	76.9	22	34.8	2	4	90	0.00	30.112 
17:30	76.5	76.5	76.8	21	33.6	2	6	112	0.00	30.102 
17:35	76.5	76.5	76.9	22	34.8	2	5	112	0.00	30.098 
17:40	76.5	76.5	76.8	21	33.6	2	5	112	0.00	30.097 
17:45	76.3	76.3	76.8	22	34.6	2	6	112	0.00	30.097 
17:50	76.3	76.3	76.7	21	33.5	3	6	112	0.00	30.095 
17:55	76.1	76.1	76.6	21	33.3	2	10	135	0.00	30.096 
18:00	76.0	76.0	76.6	22	34.4	2	7	45	0.00	30.096 
18:05	76.0	76.0	76.6	22	34.4	2	4	112	0.00	30.089 
18:10	75.8	75.8	76.4	21	33.1	2	5	112	0.00	30.090 
18:15	75.8	75.8	76.6	23	35.3	1	4	112	0.00	30.088 
18:20	75.6	75.6	76.5	22	34.1	1	4	135	0.00	30.086 
18:25	75.4	75.4	76.4	22	33.9	1	5	90	0.00	30.078 
18:30	75.3	75.3	76.3	22	33.8	2	5	112	0.00	30.076 
18:35	75.1	75.1	76.2	22	33.6	2	5	112	0.00	30.073 
18:40	74.7	74.7	74.7	23	34.4	1	4	112	0.00	30.069 
18:45	74.4	74.4	74.4	24	35.2	2	4	112	0.00	30.070 
18:50	74.2	74.2	74.2	23	34.0	1	5	135	0.00	30.074 
18:55	74.0	74.0	74.0	24	34.9	1	4	135	0.00	30.075 
19:00	73.7	73.7	73.7	25	35.7	1	3	135	0.00	30.072 
19:05	73.3	73.3	73.3	25	35.3	1	3	112	0.00	30.060 
19:10	73.0	73.0	73.0	25	35.1	1	2	135	0.00	30.055 
19:15	72.5	72.5	72.5	26	35.7	1	2	112	0.00	30.055 
19:20	72.1	72.1	72.1	26	35.3	1	2	112	0.00	30.056 
19:25	71.8	71.8	71.8	27	36.0	0	3	112	0.00	30.066 
19:30	71.5	71.5	71.5	27	35.8	0	2	112	0.00	30.064 
19:35	71.1	71.1	71.1	27	35.4	1	2	112	0.00	30.066 
19:40	70.8	70.8	70.8	27	35.2	0	2	112	0.00	30.070 
19:45	70.4	70.4	70.4	27	34.8	0	1	112	0.00	30.073 
19:50	69.9	69.9	69.9	28	35.3	0	0	---	0.00	30.076 
19:55	69.1	69.1	69.1	29	35.5	0	0	---	0.00	30.081 
20:00	68.4	68.4	68.4	29	34.9	0	0	---	0.00	30.081 
20:05	67.9	67.9	67.9	30	35.3	0	1	112	0.00	30.071 
20:10	67.6	67.6	67.6	32	36.7	0	1	112	0.00	30.070 
20:15	67.3	67.3	67.3	32	36.4	0	1	112	0.00	30.072 
20:20	66.9	66.9	66.9	33	36.9	0	1	112	0.00	30.076 
20:25	66.4	66.4	66.4	34	37.2	0	1	112	0.00	30.073 
20:30	65.8	65.8	65.8	35	37.4	0	0	---	0.00	30.074 
20:35	65.0	65.0	65.0	39	39.4	0	1	112	0.00	30.076 
20:40	64.0	64.0	64.0	39	38.5	0	2	112	0.00	30.072 
20:45	63.7	63.7	63.7	39	38.3	0	1	112	0.00	30.071 
20:50	63.5	63.5	63.5	39	38.1	0	1	112	0.00	30.071 
20:55	63.4	63.4	63.4	39	38.0	0	2	112	0.00	30.070 
21:00	63.4	63.4	63.4	38	37.3	0	2	112	0.00	30.069 
21:05	63.2	63.2	63.2	37	36.5	0	3	112	0.00	30.065 
21:10	63.2	63.2	63.2	36	35.8	0	2	112	0.00	30.069 
21:15	63.2	63.2	63.2	36	35.8	0	2	112	0.00	30.070 
21:20	63.1	63.1	63.1	37	36.4	0	1	112	0.00	30.069 
21:25	63.1	63.1	63.1	36	35.7	0	2	112	0.00	30.071 
21:30	62.9	62.9	62.9	37	36.2	0	1	112	0.00	30.067 
21:35	62.7	62.7	62.7	36	35.4	0	1	112	0.00	30.071 
21:40	62.6	62.6	62.6	39	37.3	0	0	---	0.00	30.074 
21:45	62.1	62.1	62.1	39	36.8	0	0	---	0.00	30.076 
21:50	61.5	61.5	61.5	40	37.0	0	0	---	0.00	30.080 
21:55	60.9	60.9	60.9	42	37.7	0	0	---	0.00	30.084 
22:00	60.1	60.1	60.1	44	38.1	0	2	112	0.00	30.077 
22:05	59.5	59.5	59.5	45	38.1	0	1	112	0.00	30.076 
22:10	59.2	59.2	59.2	45	37.9	0	0	---	0.00	30.082 
22:15	58.7	58.7	58.7	47	38.5	0	0	---	0.00	30.080 
22:20	58.3	58.3	58.3	48	38.7	0	1	112	0.00	30.076 
22:25	58.0	58.0	58.0	48	38.4	0	0	---	0.00	30.074 
22:30	57.8	57.8	57.8	47	37.7	0	1	112	0.00	30.071 
22:35	57.6	57.6	57.6	48	38.1	0	0	---	0.00	30.078 
22:40	57.5	57.5	57.5	48	38.0	0	0	---	0.00	30.081 
22:45	57.2	57.2	57.2	48	37.7	0	0	---	0.00	30.082 
22:50	56.9	56.9	56.9	48	37.4	0	0	---	0.00	30.084 
22:55	56.6	56.6	56.6	48	37.1	0	0	---	0.00	30.084 
23:00	56.5	56.5	56.5	49	37.6	0	0	---	0.00	30.084 
23:05	56.2	56.2	56.2	52	38.8	0	0	---	0.00	30.085 
23:10	55.9	55.9	55.9	52	38.5	0	0	---	0.00	30.086 
23:15	55.6	55.6	55.6	52	38.3	0	0	---	0.00	30.086 
23:20	55.3	55.3	55.3	53	38.5	0	0	---	0.00	30.086 
23:25	55.1	55.1	55.1	55	39.2	0	0	---	0.00	30.086 
23:30	54.8	54.8	54.8	55	38.9	0	0	---	0.00	30.089 
23:35	54.7	54.7	54.7	56	39.3	0	0	---	0.00	30.089 
23:40	54.5	54.5	54.5	56	39.1	0	0	---	0.00	30.092 
23:45	54.4	54.4	54.4	58	39.9	0	0	---	0.00	30.093 
23:50	54.1	54.1	54.1	56	38.8	0	0	---	0.00	30.090 
23:55	53.9	53.9	53.9	58	39.5	0	0	---	0.00	30.091 

CoCoRaHS
IN-AL-39
A2 Web Hosting
Creative Commons License
GoDaddy
Look for:

loaded 2017-12-11 06:36:07 • last modified 2010-11-18 10:43:29
Privacy PolicyDisclaimer
• wx.awcolley.com is powered by PmWiki v.2002016 •
• all content (unless otherwise noted) © 2017 A W Colley